sensor_id;sensor_type;location;lat;lon;timestamp;pressure;altitude;pressure_sealevel;temperature;humidity
46303;BME280;32029;51.358;5.628;2024-03-07T00:01:08;102203.44;;;7.65;100.00
46303;BME280;32029;51.358;5.628;2024-03-07T00:03:36;102219.53;;;7.68;100.00
46303;BME280;32029;51.358;5.628;2024-03-07T00:06:04;102222.56;;;7.65;100.00
46303;BME280;32029;51.358;5.628;2024-03-07T00:08:31;102213.03;;;7.59;100.00
46303;BME280;32029;51.358;5.628;2024-03-07T00:10:58;102215.03;;;7.57;100.00
46303;BME280;32029;51.358;5.628;2024-03-07T00:13:25;102213.50;;;7.44;100.00
46303;BME280;32029;51.358;5.628;2024-03-07T00:15:53;102226.16;;;7.45;100.00
46303;BME280;32029;51.358;5.628;2024-03-07T00:18:21;102223.72;;;7.42;100.00
46303;BME280;32029;51.358;5.628;2024-03-07T00:20:48;102211.84;;;7.31;100.00
46303;BME280;32029;51.358;5.628;2024-03-07T00:23:15;102223.78;;;7.30;100.00
46303;BME280;32029;51.358;5.628;2024-03-07T00:25:44;102224.75;;;7.29;100.00
46303;BME280;32029;51.358;5.628;2024-03-07T00:28:11;102217.09;;;7.23;100.00
46303;BME280;32029;51.358;5.628;2024-03-07T00:30:38;102226.28;;;7.22;100.00
46303;BME280;32029;51.358;5.628;2024-03-07T00:33:05;102223.56;;;7.22;100.00
46303;BME280;32029;51.358;5.628;2024-03-07T00:35:32;102197.19;;;7.11;100.00
46303;BME280;32029;51.358;5.628;2024-03-07T00:37:59;102207.94;;;7.13;100.00
46303;BME280;32029;51.358;5.628;2024-03-07T00:40:27;102225.94;;;7.16;100.00
46303;BME280;32029;51.358;5.628;2024-03-07T00:42:55;102203.28;;;7.04;100.00
46303;BME280;32029;51.358;5.628;2024-03-07T00:45:22;102207.75;;;7.05;100.00
46303;BME280;32029;51.358;5.628;2024-03-07T00:47:49;102212.69;;;7.11;100.00
46303;BME280;32029;51.358;5.628;2024-03-07T00:50:16;102221.88;;;7.10;100.00
46303;BME280;32029;51.358;5.628;2024-03-07T00:52:44;102199.97;;;7.00;100.00
46303;BME280;32029;51.358;5.628;2024-03-07T00:55:11;102211.22;;;7.07;100.00
46303;BME280;32029;51.358;5.628;2024-03-07T00:57:38;102203.44;;;7.02;100.00
46303;BME280;32029;51.358;5.628;2024-03-07T01:00:06;102191.06;;;6.98;100.00
46303;BME280;32029;51.358;5.628;2024-03-07T01:02:40;102204.00;;;7.06;100.00
46303;BME280;32029;51.358;5.628;2024-03-07T01:05:10;102203.16;;;7.05;100.00
46303;BME280;32029;51.358;5.628;2024-03-07T01:07:40;102195.97;;;7.04;100.00
46303;BME280;32029;51.358;5.628;2024-03-07T01:10:08;102192.88;;;6.98;100.00
46303;BME280;32029;51.358;5.628;2024-03-07T01:12:36;102200.81;;;7.01;100.00
46303;BME280;32029;51.358;5.628;2024-03-07T01:15:04;102197.09;;;7.02;100.00
46303;BME280;32029;51.358;5.628;2024-03-07T01:17:32;102195.34;;;7.01;100.00
46303;BME280;32029;51.358;5.628;2024-03-07T01:20:00;102202.53;;;7.02;100.00
46303;BME280;32029;51.358;5.628;2024-03-07T01:22:31;102198.34;;;6.98;100.00
46303;BME280;32029;51.358;5.628;2024-03-07T01:24:59;102191.91;;;6.99;100.00
46303;BME280;32029;51.358;5.628;2024-03-07T01:27:27;102172.84;;;6.87;100.00
46303;BME280;32029;51.358;5.628;2024-03-07T01:29:55;102176.91;;;6.93;100.00
46303;BME280;32029;51.358;5.628;2024-03-07T01:32:23;102179.03;;;6.90;100.00
46303;BME280;32029;51.358;5.628;2024-03-07T01:34:50;102170.22;;;6.86;100.00
46303;BME280;32029;51.358;5.628;2024-03-07T01:37:18;102168.50;;;6.85;100.00
46303;BME280;32029;51.358;5.628;2024-03-07T01:39:45;102161.59;;;6.81;100.00
46303;BME280;32029;51.358;5.628;2024-03-07T01:42:14;102158.00;;;6.80;100.00
46303;BME280;32029;51.358;5.628;2024-03-07T01:44:42;102162.34;;;6.83;100.00
46303;BME280;32029;51.358;5.628;2024-03-07T01:47:11;102173.56;;;6.90;100.00
46303;BME280;32029;51.358;5.628;2024-03-07T01:49:39;102180.78;;;6.91;100.00
46303;BME280;32029;51.358;5.628;2024-03-07T01:52:06;102153.78;;;6.76;100.00
46303;BME280;32029;51.358;5.628;2024-03-07T01:54:35;102162.19;;;6.84;100.00
46303;BME280;32029;51.358;5.628;2024-03-07T01:57:04;102166.78;;;6.84;100.00
46303;BME280;32029;51.358;5.628;2024-03-07T01:59:32;102178.91;;;6.91;100.00
46303;BME280;32029;51.358;5.628;2024-03-07T02:01:59;102165.19;;;6.81;100.00
46303;BME280;32029;51.358;5.628;2024-03-07T02:04:29;102165.94;;;6.83;100.00
46303;BME280;32029;51.358;5.628;2024-03-07T02:06:57;102156.13;;;6.81;100.00
46303;BME280;32029;51.358;5.628;2024-03-07T02:09:26;102148.09;;;6.79;100.00
46303;BME280;32029;51.358;5.628;2024-03-07T02:11:53;102163.91;;;6.85;100.00
46303;BME280;32029;51.358;5.628;2024-03-07T02:14:20;102162.19;;;6.84;100.00
46303;BME280;32029;51.358;5.628;2024-03-07T02:16:48;102151.69;;;6.80;100.00
46303;BME280;32029;51.358;5.628;2024-03-07T02:19:15;102154.25;;;6.81;100.00
46303;BME280;32029;51.358;5.628;2024-03-07T02:21:43;102149.81;;;6.80;100.00
46303;BME280;32029;51.358;5.628;2024-03-07T02:24:11;102150.06;;;6.77;100.00
46303;BME280;32029;51.358;5.628;2024-03-07T02:26:38;102133.34;;;6.71;100.00
46303;BME280;32029;51.358;5.628;2024-03-07T02:29:07;102151.06;;;6.76;100.00
46303;BME280;32029;51.358;5.628;2024-03-07T02:31:34;102161.72;;;6.79;100.00
46303;BME280;32029;51.358;5.628;2024-03-07T02:34:04;102150.47;;;6.73;100.00
46303;BME280;32029;51.358;5.628;2024-03-07T02:36:32;102145.88;;;6.73;100.00
46303;BME280;32029;51.358;5.628;2024-03-07T02:39:00;102133.63;;;6.68;100.00
46303;BME280;32029;51.358;5.628;2024-03-07T02:41:27;102145.16;;;6.71;100.00
46303;BME280;32029;51.358;5.628;2024-03-07T02:43:55;102140.66;;;6.70;100.00
46303;BME280;32029;51.358;5.628;2024-03-07T02:46:22;102138.78;;;6.71;100.00
46303;BME280;32029;51.358;5.628;2024-03-07T02:48:49;102139.94;;;6.68;100.00
46303;BME280;32029;51.358;5.628;2024-03-07T02:51:16;102129.94;;;6.57;100.00
46303;BME280;32029;51.358;5.628;2024-03-07T02:53:44;102149.38;;;6.64;100.00
46303;BME280;32029;51.358;5.628;2024-03-07T02:56:11;102137.88;;;6.60;100.00
46303;BME280;32029;51.358;5.628;2024-03-07T02:58:38;102126.75;;;6.52;100.00
46303;BME280;32029;51.358;5.628;2024-03-07T03:01:07;102132.06;;;6.54;100.00
46303;BME280;32029;51.358;5.628;2024-03-07T03:03:35;102124.00;;;6.52;100.00
46303;BME280;32029;51.358;5.628;2024-03-07T03:06:03;102122.25;;;6.51;100.00
46303;BME280;32029;51.358;5.628;2024-03-07T03:08:33;102126.25;;;6.47;100.00
46303;BME280;32029;51.358;5.628;2024-03-07T03:11:01;102129.88;;;6.48;100.00
46303;BME280;32029;51.358;5.628;2024-03-07T03:13:29;102132.31;;;6.51;100.00
46303;BME280;32029;51.358;5.628;2024-03-07T03:15:57;102126.84;;;6.51;100.00
46303;BME280;32029;51.358;5.628;2024-03-07T03:18:25;102131.59;;;6.49;100.00
46303;BME280;32029;51.358;5.628;2024-03-07T03:20:52;102108.69;;;6.40;100.00
46303;BME280;32029;51.358;5.628;2024-03-07T03:23:20;102123.66;;;6.46;100.00
46303;BME280;32029;51.358;5.628;2024-03-07T03:25:48;102127.38;;;6.45;100.00
46303;BME280;32029;51.358;5.628;2024-03-07T03:28:16;102126.38;;;6.46;100.00
46303;BME280;32029;51.358;5.628;2024-03-07T03:30:43;102118.34;;;6.44;100.00
46303;BME280;32029;51.358;5.628;2024-03-07T03:33:10;102123.91;;;6.43;100.00
46303;BME280;32029;51.358;5.628;2024-03-07T03:35:39;102118.69;;;6.39;100.00
46303;BME280;32029;51.358;5.628;2024-03-07T03:38:07;102108.09;;;6.36;100.00
46303;BME280;32029;51.358;5.628;2024-03-07T03:40:35;102108.94;;;6.37;100.00
46303;BME280;32029;51.358;5.628;2024-03-07T03:43:02;102119.84;;;6.37;100.00
46303;BME280;32029;51.358;5.628;2024-03-07T03:45:30;102110.91;;;6.35;100.00
46303;BME280;32029;51.358;5.628;2024-03-07T03:47:59;102102.41;;;6.28;100.00
46303;BME280;32029;51.358;5.628;2024-03-07T03:50:27;102088.53;;;6.20;100.00
46303;BME280;32029;51.358;5.628;2024-03-07T03:52:55;102106.84;;;6.29;100.00
46303;BME280;32029;51.358;5.628;2024-03-07T03:55:24;102110.59;;;6.28;100.00
46303;BME280;32029;51.358;5.628;2024-03-07T03:57:51;102103.66;;;6.24;100.00
46303;BME280;32029;51.358;5.628;2024-03-07T04:00:20;102110.69;;;6.27;100.00
46303;BME280;32029;51.358;5.628;2024-03-07T04:02:50;102088.06;;;6.15;100.00
46303;BME280;32029;51.358;5.628;2024-03-07T04:05:19;102105.63;;;6.22;100.00
46303;BME280;32029;51.358;5.628;2024-03-07T04:07:47;102102.16;;;6.20;100.00
46303;BME280;32029;51.358;5.628;2024-03-07T04:10:16;102104.41;;;6.15;100.00
46303;BME280;32029;51.358;5.628;2024-03-07T04:12:44;102104.41;;;6.15;100.00
46303;BME280;32029;51.358;5.628;2024-03-07T04:15:14;102106.66;;;6.10;100.00
46303;BME280;32029;51.358;5.628;2024-03-07T04:17:45;102105.66;;;6.11;100.00
46303;BME280;32029;51.358;5.628;2024-03-07T04:20:13;102099.72;;;6.06;100.00
46303;BME280;32029;51.358;5.628;2024-03-07T04:22:41;102102.94;;;6.00;100.00
46303;BME280;32029;51.358;5.628;2024-03-07T04:25:08;102106.19;;;6.05;100.00
46303;BME280;32029;51.358;5.628;2024-03-07T04:27:36;102105.69;;;6.00;100.00
46303;BME280;32029;51.358;5.628;2024-03-07T04:30:05;102108.41;;;6.00;100.00
46303;BME280;32029;51.358;5.628;2024-03-07T04:32:33;102111.38;;;5.97;100.00
46303;BME280;32029;51.358;5.628;2024-03-07T04:35:04;102092.31;;;5.85;100.00
46303;BME280;32029;51.358;5.628;2024-03-07T04:37:34;102096.00;;;5.84;100.00
46303;BME280;32029;51.358;5.628;2024-03-07T04:40:06;102092.56;;;5.82;100.00
46303;BME280;32029;51.358;5.628;2024-03-07T04:42:48;102110.13;;;5.89;100.00
46303;BME280;32029;51.358;5.628;2024-03-07T04:45:17;102109.50;;;5.86;100.00
46303;BME280;32029;51.358;5.628;2024-03-07T04:47:45;102091.19;;;5.77;100.00
46303;BME280;32029;51.358;5.628;2024-03-07T04:50:13;102086.13;;;5.72;100.00
46303;BME280;32029;51.358;5.628;2024-03-07T04:52:44;102074.59;;;5.69;100.00
46303;BME280;32029;51.358;5.628;2024-03-07T04:55:13;102097.75;;;5.74;100.00
46303;BME280;32029;51.358;5.628;2024-03-07T04:57:41;102083.78;;;5.68;100.00
46303;BME280;32029;51.358;5.628;2024-03-07T05:00:10;102096.75;;;5.75;100.00
46303;BME280;32029;51.358;5.628;2024-03-07T05:02:41;102079.69;;;5.62;100.00
46303;BME280;32029;51.358;5.628;2024-03-07T05:05:09;102082.66;;;5.59;100.00
46303;BME280;32029;51.358;5.628;2024-03-07T05:07:37;102097.78;;;5.63;100.00
46303;BME280;32029;51.358;5.628;2024-03-07T05:10:06;102094.19;;;5.62;100.00
46303;BME280;32029;51.358;5.628;2024-03-07T05:12:34;102100.50;;;5.63;100.00
46303;BME280;32029;51.358;5.628;2024-03-07T05:15:01;102090.09;;;5.57;100.00
46303;BME280;32029;51.358;5.628;2024-03-07T05:17:30;102073.63;;;5.47;100.00
46303;BME280;32029;51.358;5.628;2024-03-07T05:20:02;102077.47;;;5.45;100.00
46303;BME280;32029;51.358;5.628;2024-03-07T05:22:30;102088.72;;;5.51;100.00
46303;BME280;32029;51.358;5.628;2024-03-07T05:24:58;102087.59;;;5.54;100.00
46303;BME280;32029;51.358;5.628;2024-03-07T05:27:25;102091.31;;;5.53;100.00
46303;BME280;32029;51.358;5.628;2024-03-07T05:29:55;102078.47;;;5.44;100.00
46303;BME280;32029;51.358;5.628;2024-03-07T05:32:24;102100.34;;;5.53;100.00
46303;BME280;32029;51.358;5.628;2024-03-07T05:34:53;102099.63;;;5.51;100.00
46303;BME280;32029;51.358;5.628;2024-03-07T05:37:21;102098.75;;;5.51;100.00
46303;BME280;32029;51.358;5.628;2024-03-07T05:39:51;102079.56;;;5.41;100.00
46303;BME280;32029;51.358;5.628;2024-03-07T05:42:19;102092.44;;;5.50;100.00
46303;BME280;32029;51.358;5.628;2024-03-07T05:44:46;102090.69;;;5.49;100.00
46303;BME280;32029;51.358;5.628;2024-03-07T05:47:14;102075.97;;;5.40;100.00
46303;BME280;32029;51.358;5.628;2024-03-07T05:49:43;102097.00;;;5.50;100.00
46303;BME280;32029;51.358;5.628;2024-03-07T05:52:10;102093.56;;;5.48;100.00
46303;BME280;32029;51.358;5.628;2024-03-07T05:54:38;102081.66;;;5.37;100.00
46303;BME280;32029;51.358;5.628;2024-03-07T05:57:05;102095.53;;;5.46;100.00
46303;BME280;32029;51.358;5.628;2024-03-07T05:59:35;102080.56;;;5.40;100.00
46303;BME280;32029;51.358;5.628;2024-03-07T06:02:03;102086.88;;;5.40;100.00
46303;BME280;32029;51.358;5.628;2024-03-07T06:04:30;102091.22;;;5.43;100.00
46303;BME280;32029;51.358;5.628;2024-03-07T06:06:58;102092.31;;;5.40;100.00
46303;BME280;32029;51.358;5.628;2024-03-07T06:09:27;102096.13;;;5.38;100.00
46303;BME280;32029;51.358;5.628;2024-03-07T06:11:55;102092.81;;;5.34;100.00
46303;BME280;32029;51.358;5.628;2024-03-07T06:14:22;102087.25;;;5.36;100.00
46303;BME280;32029;51.358;5.628;2024-03-07T06:16:51;102082.41;;;5.28;100.00
46303;BME280;32029;51.358;5.628;2024-03-07T06:19:19;102075.97;;;5.29;100.00
46303;BME280;32029;51.358;5.628;2024-03-07T06:21:46;102089.56;;;5.29;100.00
46303;BME280;32029;51.358;5.628;2024-03-07T06:24:15;102070.50;;;5.18;100.00
46303;BME280;32029;51.358;5.628;2024-03-07T06:26:45;102075.72;;;5.21;100.00
46303;BME280;32029;51.358;5.628;2024-03-07T06:29:26;102075.72;;;5.21;100.00
46303;BME280;32029;51.358;5.628;2024-03-07T06:31:55;102081.16;;;5.21;100.00
46303;BME280;32029;51.358;5.628;2024-03-07T06:34:23;102084.50;;;5.25;100.00
46303;BME280;32029;51.358;5.628;2024-03-07T06:36:49;102087.84;;;5.28;100.00
46303;BME280;32029;51.358;5.628;2024-03-07T06:39:16;102087.84;;;5.28;100.00
46303;BME280;32029;51.358;5.628;2024-03-07T06:41:44;102097.38;;;5.34;100.00
46303;BME280;32029;51.358;5.628;2024-03-07T06:44:13;102096.28;;;5.36;100.00
46303;BME280;32029;51.358;5.628;2024-03-07T06:46:41;102066.94;;;5.29;100.00
46303;BME280;32029;51.358;5.628;2024-03-07T06:49:08;102079.06;;;5.36;100.00
46303;BME280;32029;51.358;5.628;2024-03-07T06:51:37;102074.50;;;5.36;100.00
46303;BME280;32029;51.358;5.628;2024-03-07T06:54:06;102083.78;;;5.45;100.00
46303;BME280;32029;51.358;5.628;2024-03-07T06:56:33;102091.31;;;5.53;100.00
46303;BME280;32029;51.358;5.628;2024-03-07T06:59:00;102092.56;;;5.60;100.00
46303;BME280;32029;51.358;5.628;2024-03-07T07:01:31;102079.94;;;5.59;100.00
46303;BME280;32029;51.358;5.628;2024-03-07T07:04:00;102074.97;;;5.64;100.00
46303;BME280;32029;51.358;5.628;2024-03-07T07:06:30;102082.38;;;5.73;100.00
46303;BME280;32029;51.358;5.628;2024-03-07T07:08:58;102073.50;;;5.71;100.00
46303;BME280;32029;51.358;5.628;2024-03-07T07:11:28;102062.13;;;5.77;100.00
46303;BME280;32029;51.358;5.628;2024-03-07T07:13:56;102073.72;;;5.90;100.00
46303;BME280;32029;51.358;5.628;2024-03-07T07:16:24;102075.94;;;5.97;100.00
46303;BME280;32029;51.358;5.628;2024-03-07T07:18:52;102079.91;;;6.04;100.00
46303;BME280;32029;51.358;5.628;2024-03-07T07:21:19;102064.69;;;6.01;100.00
46303;BME280;32029;51.358;5.628;2024-03-07T07:23:46;102063.31;;;6.07;100.00
46303;BME280;32029;51.358;5.628;2024-03-07T07:26:13;102082.09;;;6.21;100.00
46303;BME280;32029;51.358;5.628;2024-03-07T07:28:41;102080.97;;;6.24;100.00
46303;BME280;32029;51.358;5.628;2024-03-07T07:31:10;102074.50;;;6.36;100.00
46303;BME280;32029;51.358;5.628;2024-03-07T07:33:38;102073.09;;;6.42;100.00
46303;BME280;32029;51.358;5.628;2024-03-07T07:36:06;102066.84;;;6.51;100.00
46303;BME280;32029;51.358;5.628;2024-03-07T07:38:34;102074.75;;;6.65;100.00
46303;BME280;32029;51.358;5.628;2024-03-07T07:41:02;102078.41;;;6.75;100.00
46303;BME280;32029;51.358;5.628;2024-03-07T07:43:29;102060.28;;;6.74;100.00
46303;BME280;32029;51.358;5.628;2024-03-07T07:45:57;102061.09;;;6.86;100.00
46303;BME280;32029;51.358;5.628;2024-03-07T07:48:24;102072.69;;;6.99;100.00
46303;BME280;32029;51.358;5.628;2024-03-07T07:50:52;102075.00;;;7.04;100.00
46303;BME280;32029;51.358;5.628;2024-03-07T07:53:20;102071.47;;;7.13;100.00
46303;BME280;32029;51.358;5.628;2024-03-07T07:55:47;102064.13;;;7.13;100.00
46303;BME280;32029;51.358;5.628;2024-03-07T07:58:15;102060.13;;;7.18;100.00
46303;BME280;32029;51.358;5.628;2024-03-07T08:00:43;102061.31;;;7.25;100.00
46303;BME280;32029;51.358;5.628;2024-03-07T08:03:10;102068.84;;;7.32;100.00
46303;BME280;32029;51.358;5.628;2024-03-07T08:05:38;102074.09;;;7.45;100.00
46303;BME280;32029;51.358;5.628;2024-03-07T08:08:07;102060.28;;;7.47;100.00
46303;BME280;32029;51.358;5.628;2024-03-07T08:10:36;102058.44;;;7.47;100.00
46303;BME280;32029;51.358;5.628;2024-03-07T08:13:04;102064.66;;;7.59;100.00
46303;BME280;32029;51.358;5.628;2024-03-07T08:15:34;102068.16;;;7.71;100.00
46303;BME280;32029;51.358;5.628;2024-03-07T08:18:01;102075.94;;;7.75;100.00
46303;BME280;32029;51.358;5.628;2024-03-07T08:20:28;102059.09;;;7.70;100.00
46303;BME280;32029;51.358;5.628;2024-03-07T08:22:58;102078.72;;;7.85;100.00
46303;BME280;32029;51.358;5.628;2024-03-07T08:25:28;102069.81;;;7.93;100.00
46303;BME280;32029;51.358;5.628;2024-03-07T08:27:57;102063.50;;;8.02;100.00
46303;BME280;32029;51.358;5.628;2024-03-07T08:30:25;102069.69;;;8.14;100.00
46303;BME280;32029;51.358;5.628;2024-03-07T08:32:55;102052.88;;;8.18;100.00
46303;BME280;32029;51.358;5.628;2024-03-07T08:35:23;102065.59;;;8.39;100.00
46303;BME280;32029;51.358;5.628;2024-03-07T08:37:52;102059.97;;;8.50;100.00
46303;BME280;32029;51.358;5.628;2024-03-07T08:40:22;102065.19;;;8.63;100.00
46303;BME280;32029;51.358;5.628;2024-03-07T08:42:52;102054.50;;;8.69;100.00
46303;BME280;32029;51.358;5.628;2024-03-07T08:45:20;102049.16;;;8.77;100.00
46303;BME280;32029;51.358;5.628;2024-03-07T08:47:49;102048.59;;;8.83;99.02
46303;BME280;32029;51.358;5.628;2024-03-07T08:50:18;102043.53;;;8.89;98.02
46303;BME280;32029;51.358;5.628;2024-03-07T08:52:46;102055.31;;;8.99;97.57
46303;BME280;32029;51.358;5.628;2024-03-07T08:55:16;102033.44;;;8.99;95.28
46303;BME280;32029;51.358;5.628;2024-03-07T08:57:45;102044.78;;;9.04;93.66
46303;BME280;32029;51.358;5.628;2024-03-07T09:00:13;102035.88;;;9.02;92.69
46303;BME280;32029;51.358;5.628;2024-03-07T09:03:00;102045.66;;;9.04;90.96
46303;BME280;32029;51.358;5.628;2024-03-07T09:05:30;102041.75;;;9.07;92.12
46303;BME280;32029;51.358;5.628;2024-03-07T09:08:01;102033.25;;;9.10;91.57
46303;BME280;32029;51.358;5.628;2024-03-07T09:10:28;102037.81;;;9.19;91.66
46303;BME280;32029;51.358;5.628;2024-03-07T09:12:58;102038.97;;;9.26;89.60
46303;BME280;32029;51.358;5.628;2024-03-07T09:15:26;102026.13;;;9.27;89.55
46303;BME280;32029;51.358;5.628;2024-03-07T09:17:54;102009.41;;;9.20;87.65
46303;BME280;32029;51.358;5.628;2024-03-07T09:20:22;102015.34;;;9.25;87.67
46303;BME280;32029;51.358;5.628;2024-03-07T09:22:50;102028.97;;;9.35;88.50
46303;BME280;32029;51.358;5.628;2024-03-07T09:25:17;102034.44;;;9.45;88.25
46303;BME280;32029;51.358;5.628;2024-03-07T09:27:45;102027.63;;;9.49;86.94
46303;BME280;32029;51.358;5.628;2024-03-07T09:30:13;102019.25;;;9.50;86.83
46303;BME280;32029;51.358;5.628;2024-03-07T09:32:47;102025.41;;;9.62;88.40
46303;BME280;32029;51.358;5.628;2024-03-07T09:35:16;102011.22;;;9.67;85.92
46303;BME280;32029;51.358;5.628;2024-03-07T09:37:44;102025.03;;;9.75;86.30
46303;BME280;32029;51.358;5.628;2024-03-07T09:40:12;102027.28;;;9.89;86.94
46303;BME280;32029;51.358;5.628;2024-03-07T09:42:44;102026.34;;;9.98;87.04
46303;BME280;32029;51.358;5.628;2024-03-07T09:45:17;102027.53;;;10.14;86.67
46303;BME280;32029;51.358;5.628;2024-03-07T09:47:47;102014.53;;;10.16;84.71
46303;BME280;32029;51.358;5.628;2024-03-07T09:50:19;102007.81;;;10.28;84.00
46303;BME280;32029;51.358;5.628;2024-03-07T09:52:49;102027.50;;;10.41;82.88
46303;BME280;32029;51.358;5.628;2024-03-07T09:55:17;102013.78;;;10.41;81.79
46303;BME280;32029;51.358;5.628;2024-03-07T09:57:48;102023.03;;;10.58;80.58
46303;BME280;32029;51.358;5.628;2024-03-07T10:00:17;102027.25;;;10.70;81.08
46303;BME280;32029;51.358;5.628;2024-03-07T10:03:09;102017.91;;;10.81;79.23
46303;BME280;32029;51.358;5.628;2024-03-07T10:05:37;102008.81;;;10.81;78.95
46303;BME280;32029;51.358;5.628;2024-03-07T10:08:06;102013.47;;;10.88;79.72
46303;BME280;32029;51.358;5.628;2024-03-07T10:10:33;102007.78;;;10.82;78.63
46303;BME280;32029;51.358;5.628;2024-03-07T10:13:01;102008.19;;;10.95;79.86
46303;BME280;32029;51.358;5.628;2024-03-07T10:15:30;102007.31;;;11.12;78.23
46303;BME280;32029;51.358;5.628;2024-03-07T10:17:59;102008.22;;;11.21;77.21
46303;BME280;32029;51.358;5.628;2024-03-07T10:20:27;101982.13;;;11.25;77.23
46303;BME280;32029;51.358;5.628;2024-03-07T10:22:54;102004.63;;;11.55;77.42
46303;BME280;32029;51.358;5.628;2024-03-07T10:25:22;101997.81;;;11.75;75.80
46303;BME280;32029;51.358;5.628;2024-03-07T10:27:55;102001.84;;;11.97;74.57
46303;BME280;32029;51.358;5.628;2024-03-07T10:30:24;101997.06;;;12.15;73.87
46303;BME280;32029;51.358;5.628;2024-03-07T10:32:57;101979.91;;;12.30;73.22
46303;BME280;32029;51.358;5.628;2024-03-07T10:35:24;101991.78;;;12.55;71.50
46303;BME280;32029;51.358;5.628;2024-03-07T10:37:54;101988.50;;;12.75;71.52
46303;BME280;32029;51.358;5.628;2024-03-07T10:40:22;101975.38;;;12.94;69.57
46303;BME280;32029;51.358;5.628;2024-03-07T10:42:50;101977.44;;;13.08;68.91
46303;BME280;32029;51.358;5.628;2024-03-07T10:45:22;101985.66;;;13.33;68.02
46303;BME280;32029;51.358;5.628;2024-03-07T10:47:54;101993.81;;;13.57;67.02
46303;BME280;32029;51.358;5.628;2024-03-07T10:53:31;101979.69;;;13.60;64.61
46303;BME280;32029;51.358;5.628;2024-03-07T10:58:56;101986.16;;;13.36;64.98
46303;BME280;32029;51.358;5.628;2024-03-07T11:01:30;101983.25;;;13.30;64.69
46303;BME280;32029;51.358;5.628;2024-03-07T11:03:58;101977.72;;;13.21;65.33
46303;BME280;32029;51.358;5.628;2024-03-07T11:06:26;101973.59;;;13.26;66.20
46303;BME280;32029;51.358;5.628;2024-03-07T11:08:54;101964.19;;;13.59;66.27
46303;BME280;32029;51.358;5.628;2024-03-07T11:11:22;101960.22;;;13.93;64.25
46303;BME280;32029;51.358;5.628;2024-03-07T11:13:51;101955.44;;;14.33;63.08
46303;BME280;32029;51.358;5.628;2024-03-07T11:16:22;101951.69;;;14.72;60.33
46303;BME280;32029;51.358;5.628;2024-03-07T11:22:08;101950.13;;;15.22;57.09
46303;BME280;32029;51.358;5.628;2024-03-07T11:25:00;101951.16;;;15.35;54.51
46303;BME280;32029;51.358;5.628;2024-03-07T11:27:28;101947.25;;;15.30;55.57
46303;BME280;32029;51.358;5.628;2024-03-07T11:30:06;101932.19;;;15.17;55.40
46303;BME280;32029;51.358;5.628;2024-03-07T11:32:36;101941.63;;;15.23;55.44
46303;BME280;32029;51.358;5.628;2024-03-07T11:35:05;101927.41;;;15.41;55.77
46303;BME280;32029;51.358;5.628;2024-03-07T11:37:44;101926.88;;;15.52;53.23
46303;BME280;32029;51.358;5.628;2024-03-07T11:42:48;101918.28;;;15.26;53.47
46303;BME280;32029;51.358;5.628;2024-03-07T11:45:17;101920.72;;;15.20;53.67
46303;BME280;32029;51.358;5.628;2024-03-07T11:48:06;101913.13;;;15.23;55.38
46303;BME280;32029;51.358;5.628;2024-03-07T11:50:40;101906.34;;;15.25;56.21
46303;BME280;32029;51.358;5.628;2024-03-07T11:53:08;101899.09;;;15.24;54.15
46303;BME280;32029;51.358;5.628;2024-03-07T11:55:39;101900.50;;;15.35;54.64
46303;BME280;32029;51.358;5.628;2024-03-07T11:58:15;101898.50;;;15.43;53.76
46303;BME280;32029;51.358;5.628;2024-03-07T12:00:49;101903.66;;;15.32;53.02
46303;BME280;32029;51.358;5.628;2024-03-07T12:03:20;101886.19;;;15.46;52.35
46303;BME280;32029;51.358;5.628;2024-03-07T12:05:52;101889.06;;;15.89;51.89
46303;BME280;32029;51.358;5.628;2024-03-07T12:08:20;101869.97;;;16.22;50.77
46303;BME280;32029;51.358;5.628;2024-03-07T12:10:52;101881.22;;;16.42;50.78
46303;BME280;32029;51.358;5.628;2024-03-07T12:13:23;101874.31;;;16.81;50.04
46303;BME280;32029;51.358;5.628;2024-03-07T12:15:52;101869.19;;;17.19;49.61
46303;BME280;32029;51.358;5.628;2024-03-07T12:18:19;101861.94;;;17.73;49.41
46303;BME280;32029;51.358;5.628;2024-03-07T12:20:48;101849.63;;;18.28;48.09
46303;BME280;32029;51.358;5.628;2024-03-07T12:23:24;101845.34;;;18.79;47.94
46303;BME280;32029;51.358;5.628;2024-03-07T12:26:03;101855.13;;;19.01;46.38
46303;BME280;32029;51.358;5.628;2024-03-07T12:28:30;101849.19;;;18.78;46.15
46303;BME280;32029;51.358;5.628;2024-03-07T12:31:01;101835.53;;;18.50;47.09
46303;BME280;32029;51.358;5.628;2024-03-07T12:33:31;101838.53;;;18.35;47.52
46303;BME280;32029;51.358;5.628;2024-03-07T12:36:05;101842.38;;;18.47;46.84
46303;BME280;32029;51.358;5.628;2024-03-07T12:38:32;101832.53;;;18.51;46.69
46303;BME280;32029;51.358;5.628;2024-03-07T12:41:04;101831.69;;;18.44;46.44
46303;BME280;32029;51.358;5.628;2024-03-07T12:43:35;101823.78;;;18.41;46.45
46303;BME280;32029;51.358;5.628;2024-03-07T12:46:04;101825.47;;;18.29;46.97
46303;BME280;32029;51.358;5.628;2024-03-07T12:48:31;101822.94;;;18.21;47.11
46303;BME280;32029;51.358;5.628;2024-03-07T12:50:58;101826.97;;;18.05;47.09
46303;BME280;32029;51.358;5.628;2024-03-07T12:53:26;101823.56;;;17.83;48.18
46303;BME280;32029;51.358;5.628;2024-03-07T12:55:54;101803.69;;;17.79;47.57
46303;BME280;32029;51.358;5.628;2024-03-07T12:58:22;101806.66;;;17.78;47.68
46303;BME280;32029;51.358;5.628;2024-03-07T13:00:54;101808.31;;;17.66;48.02
46303;BME280;32029;51.358;5.628;2024-03-07T13:03:23;101808.50;;;17.44;47.94
46303;BME280;32029;51.358;5.628;2024-03-07T13:05:58;101801.19;;;17.30;47.30
46303;BME280;32029;51.358;5.628;2024-03-07T13:08:28;101803.31;;;17.21;48.54
46303;BME280;32029;51.358;5.628;2024-03-07T13:10:58;101796.47;;;17.24;49.30